Time;durP1;ratioP1;P1;durP2;ratioP2;P2;SDS_P1;SDS_P2;PMS_P1;PMS_P2;Temp;Humidity;BMP_temperature;BMP_pressure;BME280_temperature;BME280_humidity;BME280_pressure;Samples;Min_cycle;Max_cycle;Signal;HPM_P1;HPM_P2
2021/08/21 00:01:55;;;;;;;3.67;3.28;;;21.40;57.70;;;;;;5055128;28;20040;-83
2021/08/21 00:04:21;;;;;;;2.92;2.83;;;21.30;57.70;;;;;;5037722;28;20032;-84
2021/08/21 00:06:47;;;;;;;3.20;3.05;;;21.30;57.70;;;;;;5053926;28;20505;-82
2021/08/21 00:09:13;;;;;;;3.13;2.95;;;21.30;57.80;;;;;;5053868;28;20083;-85
2021/08/21 00:11:40;;;;;;;2.80;2.70;;;21.20;57.80;;;;;;5057298;28;20036;-83
2021/08/21 00:14:06;;;;;;;2.78;2.67;;;21.20;57.90;;;;;;5056650;28;20044;-82
2021/08/21 00:16:32;;;;;;;2.90;2.80;;;21.20;57.90;;;;;;5056386;28;20402;-83
2021/08/21 00:18:59;;;;;;;3.00;2.90;;;21.20;58.00;;;;;;5055469;28;20039;-80
2021/08/21 00:21:25;;;;;;;2.40;2.30;;;21.10;58.00;;;;;;5034659;28;20032;-83
2021/08/21 00:23:51;;;;;;;2.72;2.63;;;21.10;58.10;;;;;;5058522;28;20021;-83
2021/08/21 00:26:17;;;;;;;3.95;2.88;;;21.10;58.20;;;;;;5055443;28;20041;-81
2021/08/21 00:28:43;;;;;;;2.58;2.47;;;21.00;58.30;;;;;;5056101;28;20413;-83
2021/08/21 00:31:09;;;;;;;3.30;3.00;;;21.00;58.30;;;;;;5055990;28;20029;-83
2021/08/21 00:33:35;;;;;;;3.08;2.97;;;21.00;58.40;;;;;;5052052;28;20425;-84
2021/08/21 00:36:02;;;;;;;5.50;3.00;;;21.00;58.40;;;;;;5056338;28;20040;-83
2021/08/21 00:38:28;;;;;;;2.65;2.55;;;20.90;58.40;;;;;;5039946;28;20069;-83
2021/08/21 00:40:54;;;;;;;3.08;2.88;;;20.90;58.50;;;;;;5055120;28;20037;-82
2021/08/21 00:43:20;;;;;;;2.85;2.75;;;20.90;58.60;;;;;;5054646;28;20040;-83
2021/08/21 00:45:46;;;;;;;2.92;2.83;;;20.80;58.60;;;;;;5037474;28;20051;-84
2021/08/21 00:48:12;;;;;;;3.72;3.53;;;20.80;58.70;;;;;;5051949;28;20466;-82
2021/08/21 00:50:39;;;;;;;3.50;3.30;;;20.80;58.80;;;;;;5056909;28;20036;-83
2021/08/21 00:53:05;;;;;;;2.72;2.63;;;20.80;58.80;;;;;;5056039;28;20041;-83
2021/08/21 00:55:31;;;;;;;5.82;3.40;;;20.80;58.80;;;;;;5055890;28;20025;-83
2021/08/21 00:57:57;;;;;;;2.97;2.83;;;20.70;58.80;;;;;;5054335;28;20420;-83
2021/08/21 01:00:23;;;;;;;3.20;3.00;;;20.70;58.90;;;;;;5051456;28;20398;-83
2021/08/21 01:02:49;;;;;;;2.95;2.85;;;20.70;59.00;;;;;;5057754;28;20025;-83
2021/08/21 01:05:16;;;;;;;2.97;2.88;;;20.70;59.00;;;;;;5055856;28;20394;-85
2021/08/21 01:07:43;;;;;;;3.35;3.15;;;20.60;59.10;;;;;;5060375;28;20405;-84
2021/08/21 01:10:11;;;;;;;3.25;3.05;;;20.60;59.20;;;;;;5064200;28;20497;-83
2021/08/21 01:12:38;;;;;;;3.08;2.97;;;20.60;59.20;;;;;;5052812;28;20049;-83
2021/08/21 01:15:04;;;;;;;3.28;3.13;;;20.60;59.20;;;;;;5053335;28;20028;-82
2021/08/21 01:17:30;;;;;;;2.90;2.80;;;20.50;59.20;;;;;;5071985;28;20043;-82
2021/08/21 01:19:56;;;;;;;3.10;3.00;;;20.50;59.30;;;;;;5052702;28;20040;-83
2021/08/21 01:22:25;;;;;;;3.42;3.22;;;20.50;59.40;;;;;;5052793;28;20024;-83
2021/08/21 01:24:52;;;;;;;2.92;2.83;;;20.40;59.40;;;;;;5053383;28;20048;-82
2021/08/21 01:27:22;;;;;;;2.83;2.72;;;20.40;59.50;;;;;;5051507;28;20509;-82
2021/08/21 01:29:48;;;;;;;2.80;2.70;;;20.40;59.60;;;;;;5071369;28;20039;-81
2021/08/21 01:32:14;;;;;;;3.05;2.85;;;20.30;59.60;;;;;;5037860;28;20045;-85
2021/08/21 01:34:40;;;;;;;3.00;2.90;;;20.30;59.70;;;;;;5055103;28;20044;-82
2021/08/21 01:37:07;;;;;;;2.83;2.72;;;20.30;59.70;;;;;;5055378;28;20488;-83
2021/08/21 01:39:33;;;;;;;2.90;2.80;;;20.30;59.70;;;;;;5051985;28;20037;-84
2021/08/21 01:41:59;;;;;;;2.90;2.80;;;20.30;59.80;;;;;;5055200;28;20028;-82
2021/08/21 01:44:25;;;;;;;3.47;3.28;;;20.20;59.80;;;;;;5055847;28;20032;-82
2021/08/21 01:46:51;;;;;;;2.80;2.70;;;20.20;59.80;;;;;;5054775;28;20501;-82
2021/08/21 01:49:18;;;;;;;3.13;3.00;;;20.20;59.90;;;;;;5037296;28;20025;-82
2021/08/21 01:51:48;;;;;;;3.38;3.03;;;20.20;59.90;;;;;;5051083;28;20048;-83
2021/08/21 01:54:16;;;;;;;3.13;2.92;;;20.20;60.00;;;;;;5051937;28;20041;-83
2021/08/21 01:56:56;;;;;;;2.75;2.65;;;20.20;60.00;;;;;;5055313;28;20025;-83
2021/08/21 01:59:29;;;;;;;3.65;3.42;;;20.10;60.00;;;;;;5055248;28;20485;-83
2021/08/21 02:01:55;;;;;;;2.88;2.78;;;20.10;60.10;;;;;;5026016;28;20497;-84
2021/08/21 02:04:21;;;;;;;3.03;2.92;;;20.10;60.10;;;;;;5042066;28;20508;-84
2021/08/21 02:06:48;;;;;;;2.60;2.50;;;20.00;60.10;;;;;;5046123;28;20026;-84
2021/08/21 02:09:16;;;;;;;2.97;2.80;;;20.00;60.20;;;;;;5079478;28;20025;-84
2021/08/21 02:11:43;;;;;;;3.00;2.90;;;20.00;60.20;;;;;;5034792;28;20387;-83
2021/08/21 02:14:09;;;;;;;2.83;2.72;;;20.00;60.30;;;;;;5043769;28;20049;-83
2021/08/21 02:16:35;;;;;;;3.03;2.92;;;20.00;60.30;;;;;;5041215;28;20049;-83
2021/08/21 02:19:01;;;;;;;2.80;2.70;;;19.90;60.40;;;;;;5037107;28;20041;-85
2021/08/21 02:21:28;;;;;;;2.75;2.65;;;19.90;60.40;;;;;;5031468;28;20029;-84
2021/08/21 02:23:57;;;;;;;3.25;3.05;;;19.90;60.50;;;;;;5035111;28;20021;-83
2021/08/21 02:26:26;;;;;;;3.13;2.90;;;19.90;60.60;;;;;;5043031;28;20036;-82
2021/08/21 02:28:53;;;;;;;2.65;2.50;;;19.80;60.60;;;;;;5038033;28;20044;-84
2021/08/21 02:31:20;;;;;;;2.67;2.58;;;19.70;60.80;;;;;;5033584;28;20487;-83
2021/08/21 02:33:46;;;;;;;2.50;2.40;;;19.60;60.90;;;;;;5033500;28;20049;-82
2021/08/21 02:36:15;;;;;;;2.47;2.38;;;19.50;61.10;;;;;;5038471;28;20025;-85
2021/08/21 02:38:41;;;;;;;2.60;2.50;;;19.50;61.20;;;;;;5061439;28;20051;-83
2021/08/21 02:41:08;;;;;;;2.83;2.65;;;19.40;61.40;;;;;;5053612;28;20033;-83
2021/08/21 02:43:34;;;;;;;2.70;2.60;;;19.40;61.60;;;;;;5053214;28;20029;-83
2021/08/21 02:46:00;;;;;;;2.47;2.38;;;19.20;61.80;;;;;;5052849;28;20473;-83
2021/08/21 02:48:26;;;;;;;2.35;2.25;;;19.20;62.00;;;;;;5048890;28;20040;-82
2021/08/21 02:50:52;;;;;;;2.90;2.72;;;19.10;62.10;;;;;;5067752;28;20486;-83
2021/08/21 02:53:18;;;;;;;2.47;2.38;;;19.00;62.20;;;;;;5054473;28;20075;-84
2021/08/21 02:55:45;;;;;;;2.88;2.67;;;19.00;62.30;;;;;;5053233;28;20029;-83
2021/08/21 02:58:11;;;;;;;2.70;2.60;;;19.00;62.40;;;;;;5054292;28;20035;-83
2021/08/21 03:00:37;;;;;;;2.72;2.53;;;18.90;62.40;;;;;;5050058;28;20409;-82
2021/08/21 03:03:03;;;;;;;3.28;2.25;;;18.90;62.50;;;;;;5055400;28;20040;-83
2021/08/21 03:05:29;;;;;;;2.45;2.35;;;18.80;62.60;;;;;;5059126;28;20036;-83
2021/08/21 03:07:56;;;;;;;2.55;2.30;;;18.80;62.70;;;;;;5057601;28;20470;-84
2021/08/21 03:10:22;;;;;;;2.40;2.30;;;18.70;62.80;;;;;;5058203;28;20041;-82
2021/08/21 03:12:48;;;;;;;2.63;2.42;;;18.70;62.90;;;;;;5056548;28;20032;-83
2021/08/21 03:15:14;;;;;;;2.80;2.60;;;18.70;63.00;;;;;;5053225;28;20421;-83
2021/08/21 03:17:40;;;;;;;3.00;2.80;;;18.70;62.90;;;;;;5059672;28;20020;-82
2021/08/21 03:20:07;;;;;;;2.70;2.50;;;18.70;62.90;;;;;;5056203;28;20386;-84
2021/08/21 03:22:34;;;;;;;2.70;2.60;;;18.70;62.90;;;;;;5057589;28;20036;-84
2021/08/21 03:25:00;;;;;;;2.80;2.60;;;18.70;63.00;;;;;;5040036;28;20032;-82
2021/08/21 03:27:26;;;;;;;2.58;2.47;;;18.70;63.10;;;;;;5053429;28;20033;-83
2021/08/21 03:29:52;;;;;;;2.72;2.63;;;18.70;63.20;;;;;;5066559;28;20021;-83
2021/08/21 03:32:18;;;;;;;2.58;2.47;;;18.60;63.20;;;;;;5057183;28;20041;-84
2021/08/21 03:34:44;;;;;;;2.65;2.55;;;18.60;63.30;;;;;;5056104;28;20045;-83
2021/08/21 03:37:11;;;;;;;2.67;2.58;;;18.60;63.30;;;;;;5055816;28;20465;-83
2021/08/21 03:39:37;;;;;;;7.53;2.80;;;18.60;63.40;;;;;;5054426;28;20421;-83
2021/08/21 03:42:04;;;;;;;3.78;2.72;;;18.60;63.50;;;;;;5057233;28;20041;-83
2021/08/21 03:44:30;;;;;;;2.83;2.63;;;18.50;63.40;;;;;;5058468;28;20036;-83
2021/08/21 03:46:56;;;;;;;3.20;3.05;;;18.50;63.60;;;;;;5056856;28;20398;-83
2021/08/21 03:49:22;;;;;;;2.25;2.15;;;18.50;63.70;;;;;;5057146;28;20036;-83
2021/08/21 03:51:49;;;;;;;2.63;2.53;;;18.50;63.80;;;;;;5039706;28;20036;-84
2021/08/21 03:54:15;;;;;;;2.90;2.58;;;18.50;63.80;;;;;;5053997;28;20398;-81
2021/08/21 03:56:41;;;;;;;3.22;2.92;;;18.60;63.80;;;;;;5058982;28;20029;-83
2021/08/21 03:59:07;;;;;;;2.38;2.28;;;18.60;63.60;;;;;;5055589;28;20044;-83
2021/08/21 04:01:33;;;;;;;12.65;3.05;;;18.70;63.60;;;;;;5056428;28;20413;-83
2021/08/21 04:03:59;;;;;;;2.60;2.50;;;18.70;63.60;;;;;;5055846;28;20028;-83
2021/08/21 04:06:25;;;;;;;2.80;2.70;;;18.70;64.30;;;;;;5052442;28;20029;-83
2021/08/21 04:08:51;;;;;;;3.30;2.97;;;18.70;64.40;;;;;;5057619;28;20021;-83
2021/08/21 04:11:17;;;;;;;3.67;2.92;;;18.70;63.60;;;;;;5055696;28;20033;-83
2021/08/21 04:13:44;;;;;;;2.72;2.60;;;18.70;63.60;;;;;;5039166;28;20064;-83
2021/08/21 04:16:10;;;;;;;3.38;2.53;;;18.70;63.70;;;;;;5056203;28;20025;-83
2021/08/21 04:18:36;;;;;;;2.90;2.80;;;18.70;63.80;;;;;;5052477;28;20044;-83
2021/08/21 04:21:03;;;;;;;2.60;2.50;;;18.70;63.90;;;;;;5055009;28;20021;-83
2021/08/21 04:23:29;;;;;;;2.72;2.63;;;18.60;63.80;;;;;;5056421;28;20024;-83
2021/08/21 04:25:59;;;;;;;2.90;2.72;;;18.60;63.80;;;;;;5055420;28;20524;-82
2021/08/21 04:28:32;;;;;;;2.60;2.50;;;18.70;64.00;;;;;;5055393;28;20033;-84
2021/08/21 04:30:58;;;;;;;3.15;2.97;;;18.60;64.00;;;;;;5053333;28;20034;-83
2021/08/21 04:33:24;;;;;;;2.67;2.58;;;18.60;64.10;;;;;;5050703;28;20487;-83
2021/08/21 04:35:50;;;;;;;2.58;2.47;;;18.60;64.00;;;;;;5056814;28;20386;-82
2021/08/21 04:38:17;;;;;;;2.95;2.75;;;18.60;64.10;;;;;;5053571;28;20033;-84
2021/08/21 04:40:46;;;;;;;2.50;2.40;;;18.60;64.10;;;;;;5054973;28;20474;-83
2021/08/21 04:43:13;;;;;;;2.88;2.78;;;18.60;64.20;;;;;;5038916;28;20035;-83
2021/08/21 04:45:39;;;;;;;3.55;2.90;;;18.60;64.20;;;;;;5036825;28;20033;-83
2021/08/21 04:48:05;;;;;;;3.08;2.78;;;18.70;64.30;;;;;;5055062;28;20091;-83
2021/08/21 04:50:31;;;;;;;3.15;2.95;;;18.60;64.30;;;;;;5057091;28;20043;-84
2021/08/21 04:52:57;;;;;;;2.60;2.50;;;18.70;64.40;;;;;;5055960;28;20037;-83
2021/08/21 04:55:23;;;;;;;3.03;2.83;;;18.70;64.40;;;;;;5056017;28;20482;-83
2021/08/21 04:57:50;;;;;;;2.40;2.30;;;18.60;64.40;;;;;;5053565;28;20036;-83
2021/08/21 05:00:16;;;;;;;2.67;2.58;;;18.60;64.40;;;;;;5050950;28;20040;-83
2021/08/21 05:02:42;;;;;;;2.90;2.70;;;18.70;64.50;;;;;;5057786;28;20021;-83
2021/08/21 05:05:08;;;;;;;2.97;2.78;;;18.60;64.50;;;;;;5053114;28;20033;-84
2021/08/21 05:07:34;;;;;;;3.45;3.13;;;18.60;64.50;;;;;;5055622;28;20032;-83
2021/08/21 05:10:01;;;;;;;2.67;2.58;;;18.60;64.50;;;;;;5054372;28;20039;-83
2021/08/21 05:12:27;;;;;;;2.53;2.42;;;18.60;64.60;;;;;;5050163;28;20030;-85
2021/08/21 05:14:53;;;;;;;2.75;2.65;;;18.60;64.60;;;;;;5057398;28;20037;-83
2021/08/21 05:17:19;;;;;;;2.60;2.50;;;18.60;64.60;;;;;;5053574;28;20056;-84
2021/08/21 05:19:52;;;;;;;2.78;2.67;;;18.60;64.70;;;;;;5054109;28;20107;-83
2021/08/21 05:22:39;;;;;;;2.65;2.55;;;18.60;64.80;;;;;;5040272;28;20032;-83
2021/08/21 05:25:05;;;;;;;2.40;2.30;;;18.60;64.80;;;;;;5054337;28;20401;-83
2021/08/21 05:27:32;;;;;;;2.47;2.35;;;18.60;64.80;;;;;;5050433;28;20044;-83
2021/08/21 05:29:59;;;;;;;3.97;2.58;;;18.60;64.80;;;;;;5038186;28;20041;-83
2021/08/21 05:32:25;;;;;;;2.65;2.55;;;18.60;64.80;;;;;;5054010;28;20414;-84
2021/08/21 05:34:51;;;;;;;3.13;2.92;;;18.60;64.70;;;;;;5053580;28;20090;-82
2021/08/21 05:37:17;;;;;;;2.80;2.70;;;18.70;64.80;;;;;;5054074;28;20052;-84
2021/08/21 05:39:44;;;;;;;2.65;2.55;;;18.70;64.70;;;;;;5035658;28;20044;-82
2021/08/21 05:42:10;;;;;;;2.78;2.67;;;18.70;64.70;;;;;;5035350;28;20390;-83
2021/08/21 05:44:36;;;;;;;3.05;2.92;;;18.70;64.70;;;;;;5055087;28;20029;-83
2021/08/21 05:47:02;;;;;;;2.88;2.75;;;18.80;64.70;;;;;;5053398;28;20405;-83
2021/08/21 05:49:28;;;;;;;3.03;2.92;;;18.90;64.60;;;;;;5051605;28;20043;-83
2021/08/21 05:51:54;;;;;;;3.45;3.28;;;19.10;64.40;;;;;;5053416;28;20028;-83
2021/08/21 05:54:20;;;;;;;3.33;3.03;;;19.20;64.20;;;;;;5050408;28;20491;-83
2021/08/21 05:56:46;;;;;;;4.45;3.53;;;19.40;64.00;;;;;;5056235;28;20033;-82
2021/08/21 05:59:12;;;;;;;3.30;3.10;;;19.50;63.80;;;;;;5054903;28;20029;-84
2021/08/21 06:01:38;;;;;;;2.83;2.72;;;19.60;63.50;;;;;;5053903;28;20049;-83
2021/08/21 06:04:06;;;;;;;2.70;2.60;;;19.70;63.40;;;;;;5022388;28;20524;-83
2021/08/21 06:06:35;;;;;;;3.95;3.63;;;19.80;63.30;;;;;;5051539;28;20052;-83
2021/08/21 06:09:01;;;;;;;3.72;3.53;;;19.90;63.20;;;;;;5054873;28;20033;-83
2021/08/21 06:11:27;;;;;;;3.22;3.03;;;20.00;63.10;;;;;;5054222;28;20359;-82
2021/08/21 06:13:53;;;;;;;3.40;3.20;;;20.00;63.00;;;;;;5054674;28;20045;-83
2021/08/21 06:16:19;;;;;;;2.85;2.75;;;20.10;63.10;;;;;;5053881;28;20033;-83
2021/08/21 06:18:46;;;;;;;3.45;3.25;;;20.10;63.10;;;;;;5051780;28;20044;-83
2021/08/21 06:21:13;;;;;;;3.50;3.30;;;20.10;63.10;;;;;;5052025;28;20025;-83
2021/08/21 06:23:39;;;;;;;3.53;3.33;;;20.10;63.20;;;;;;5055435;28;20033;-85
2021/08/21 06:26:05;;;;;;;3.70;3.50;;;20.20;63.10;;;;;;5037069;28;20059;-83
2021/08/21 06:28:31;;;;;;;3.28;3.17;;;20.30;63.00;;;;;;5053468;28;20036;-83
2021/08/21 06:30:57;;;;;;;3.72;3.53;;;20.40;62.70;;;;;;5053556;28;20040;-83
2021/08/21 06:33:23;;;;;;;4.10;3.90;;;20.60;62.50;;;;;;5049025;28;20049;-83
2021/08/21 06:35:49;;;;;;;3.97;3.78;;;20.70;62.30;;;;;;5088394;28;20041;-82
2021/08/21 06:38:15;;;;;;;4.18;3.97;;;20.70;62.20;;;;;;5057641;28;20036;-85
2021/08/21 06:40:41;;;;;;;4.32;4.13;;;20.80;62.30;;;;;;5058580;28;20405;-83
2021/08/21 06:43:07;;;;;;;4.20;4.00;;;20.80;62.20;;;;;;5057362;28;20024;-83
2021/08/21 06:45:34;;;;;;;5.20;4.80;;;20.90;62.30;;;;;;5054437;28;20044;-84
2021/08/21 06:48:00;;;;;;;5.00;4.70;;;21.00;62.10;;;;;;5040887;28;20044;-86
2021/08/21 06:50:26;;;;;;;4.43;4.22;;;21.10;62.00;;;;;;5059132;28;20033;-83
2021/08/21 06:52:52;;;;;;;3.67;3.38;;;21.10;61.90;;;;;;5058268;28;20025;-83
2021/08/21 06:55:18;;;;;;;3.85;3.65;;;21.10;62.70;;;;;;5058325;28;20033;-83
2021/08/21 06:57:44;;;;;;;4.57;4.35;;;21.10;61.90;;;;;;5056393;28;20033;-82
2021/08/21 07:00:11;;;;;;;4.38;4.18;;;21.10;62.00;;;;;;5055875;28;20036;-83
2021/08/21 07:02:37;;;;;;;4.78;4.47;;;21.10;62.10;;;;;;5056949;28;20382;-83
2021/08/21 07:05:03;;;;;;;4.53;4.32;;;21.10;62.10;;;;;;5056959;28;20044;-83
2021/08/21 07:07:30;;;;;;;4.53;4.32;;;21.10;62.10;;;;;;5055312;28;20025;-84
2021/08/21 07:09:56;;;;;;;4.43;4.22;;;21.20;62.10;;;;;;5057810;28;20023;-83
2021/08/21 07:12:22;;;;;;;4.40;4.20;;;21.20;61.90;;;;;;5052885;28;20025;-83
2021/08/21 07:14:48;;;;;;;4.75;4.45;;;21.30;61.80;;;;;;5058924;28;20045;-84
2021/08/21 07:17:15;;;;;;;4.50;4.30;;;21.40;61.70;;;;;;5057319;28;20037;-86
2021/08/21 07:19:42;;;;;;;4.65;4.45;;;21.40;61.60;;;;;;5057941;28;20045;-83
2021/08/21 07:22:09;;;;;;;3.97;3.78;;;21.50;61.60;;;;;;5057743;28;20017;-84
2021/08/21 07:24:35;;;;;;;4.85;4.57;;;21.50;61.60;;;;;;5054895;28;20040;-84
2021/08/21 07:27:01;;;;;;;4.32;4.03;;;21.50;61.50;;;;;;5058027;28;20035;-83
2021/08/21 07:29:27;;;;;;;3.70;3.50;;;21.60;61.30;;;;;;5057111;28;20371;-83
2021/08/21 07:31:54;;;;;;;4.38;3.70;;;21.60;61.20;;;;;;5041065;28;20036;-83
2021/08/21 07:34:20;;;;;;;4.15;3.95;;;21.70;61.20;;;;;;5057335;28;20048;-84
2021/08/21 07:36:46;;;;;;;3.90;3.70;;;21.70;61.20;;;;;;5054426;28;20032;-83
2021/08/21 07:39:12;;;;;;;4.10;3.90;;;21.90;61.10;;;;;;5053717;28;20378;-84
2021/08/21 07:41:38;;;;;;;4.75;4.55;;;22.00;60.80;;;;;;5059288;28;20040;-83
2021/08/21 07:44:04;;;;;;;4.88;4.55;;;22.10;60.60;;;;;;5055585;28;20406;-83
2021/08/21 07:46:31;;;;;;;5.10;4.90;;;22.30;60.40;;;;;;5054213;28;20033;-83
2021/08/21 07:48:57;;;;;;;4.45;4.25;;;22.40;60.10;;;;;;5023085;28;20033;-83
2021/08/21 07:51:23;;;;;;;5.28;4.97;;;22.50;59.90;;;;;;5052233;28;20529;-83
2021/08/21 07:53:49;;;;;;;4.60;4.40;;;22.60;59.90;;;;;;5058651;28;20029;-85
2021/08/21 07:56:15;;;;;;;5.03;4.82;;;22.60;59.80;;;;;;5055965;28;20520;-83
2021/08/21 07:58:41;;;;;;;4.95;4.75;;;22.60;59.90;;;;;;5056651;28;20032;-84
2021/08/21 08:01:08;;;;;;;5.00;4.80;;;22.70;59.90;;;;;;5055476;28;20036;-83
2021/08/21 08:03:34;;;;;;;5.05;4.75;;;22.70;59.80;;;;;;5053638;28;20024;-83
2021/08/21 08:06:00;;;;;;;4.82;4.57;;;22.70;59.70;;;;;;5057279;28;20029;-83
2021/08/21 08:08:26;;;;;;;5.10;4.90;;;22.80;59.70;;;;;;5057740;28;20470;-84
2021/08/21 08:10:52;;;;;;;5.10;4.72;;;22.80;59.80;;;;;;5056902;28;20025;-83
2021/08/21 08:13:18;;;;;;;4.75;4.50;;;22.80;59.80;;;;;;5056469;28;20063;-85
2021/08/21 08:15:44;;;;;;;4.50;4.30;;;22.90;59.70;;;;;;5052114;28;20052;-83
2021/08/21 08:18:11;;;;;;;4.72;4.53;;;22.90;59.60;;;;;;5067421;28;20043;-84
2021/08/21 08:20:37;;;;;;;5.10;4.80;;;22.90;59.50;;;;;;5052124;28;20042;-84
2021/08/21 08:23:03;;;;;;;4.60;4.40;;;23.00;59.60;;;;;;5054108;28;20025;-84
2021/08/21 08:25:30;;;;;;;4.70;4.50;;;23.00;59.60;;;;;;5055367;28;20500;-83
2021/08/21 08:27:57;;;;;;;5.30;5.00;;;22.90;59.60;;;;;;5039590;28;20032;-83
2021/08/21 08:30:23;;;;;;;4.38;4.18;;;22.80;59.70;;;;;;5050003;28;20045;-83
2021/08/21 08:32:49;;;;;;;4.53;4.30;;;22.80;59.90;;;;;;5057917;28;20064;-84
2021/08/21 08:35:15;;;;;;;4.47;4.18;;;22.70;59.80;;;;;;5056566;28;20052;-84
2021/08/21 08:37:41;;;;;;;4.78;4.55;;;22.70;60.70;;;;;;5055182;28;20056;-84
2021/08/21 08:40:11;;;;;;;4.55;4.35;;;22.70;59.90;;;;;;5055122;28;20037;-83
2021/08/21 08:42:41;;;;;;;4.55;4.35;;;22.70;59.90;;;;;;5052950;28;20032;-84
2021/08/21 08:45:09;;;;;;;5.03;4.80;;;22.80;60.00;;;;;;5020924;28;20033;-84
2021/08/21 08:47:36;;;;;;;4.68;4.47;;;22.90;59.80;;;;;;5040231;28;20036;-83
2021/08/21 08:50:04;;;;;;;4.75;4.55;;;23.00;59.70;;;;;;5038450;28;20037;-84
2021/08/21 08:52:30;;;;;;;4.50;4.30;;;23.10;59.50;;;;;;5056072;28;20108;-83
2021/08/21 08:54:56;;;;;;;5.18;4.88;;;23.20;59.40;;;;;;5054316;28;20515;-85
2021/08/21 08:57:42;;;;;;;4.20;4.00;;;23.20;59.30;;;;;;5051629;28;20028;-85
2021/08/21 09:00:14;;;;;;;4.93;4.57;;;23.30;59.30;;;;;;5064021;28;20043;-85
2021/08/21 09:02:42;;;;;;;4.47;4.28;;;23.20;59.30;;;;;;5088566;28;20022;-84
2021/08/21 09:05:10;;;;;;;4.63;4.32;;;23.10;59.40;;;;;;5054174;28;20037;-84
2021/08/21 09:07:42;;;;;;;4.30;4.10;;;23.10;59.50;;;;;;5054157;28;20036;-83
2021/08/21 09:10:13;;;;;;;4.70;4.50;;;23.00;59.60;;;;;;5054020;28;20029;-83
2021/08/21 09:12:39;;;;;;;4.60;4.30;;;23.00;59.60;;;;;;5052859;28;20029;-83
2021/08/21 09:15:24;;;;;;;4.47;4.28;;;23.00;59.60;;;;;;5054495;28;20517;-84
2021/08/21 09:18:00;;;;;;;4.30;4.10;;;23.00;59.60;;;;;;5071925;28;20028;-83
2021/08/21 09:20:26;;;;;;;4.32;4.13;;;23.00;59.60;;;;;;5039424;28;20056;-84
2021/08/21 09:22:52;;;;;;;4.50;4.30;;;23.00;59.50;;;;;;5054273;28;20033;-84
2021/08/21 09:25:28;;;;;;;4.90;4.60;;;23.10;59.40;;;;;;5055367;28;20036;-83
2021/08/21 09:27:54;;;;;;;5.22;4.88;;;23.20;59.80;;;;;;5054941;28;20028;-83
2021/08/21 09:30:21;;;;;;;5.20;5.00;;;23.40;59.00;;;;;;5050932;28;20462;-84
2021/08/21 09:32:47;;;;;;;5.32;5.03;;;23.60;58.70;;;;;;5057103;28;20041;-84
2021/08/21 09:35:13;;;;;;;5.32;5.07;;;24.00;58.30;;;;;;5053574;28;20433;-84
2021/08/21 09:37:52;;;;;;;5.50;5.20;;;24.10;57.90;;;;;;5055250;28;20041;-83
2021/08/21 09:40:39;;;;;;;5.45;5.15;;;24.30;57.70;;;;;;5053874;28;20036;-86
2021/08/21 09:43:31;;;;;;;5.40;5.20;;;24.30;57.60;;;;;;5052729;28;20036;-84
2021/08/21 09:46:26;;;;;;;5.13;4.82;;;24.40;57.70;;;;;;5054305;28;20036;-83
2021/08/21 09:48:59;;;;;;;5.32;5.13;;;24.30;57.60;;;;;;5027545;28;20389;-84
2021/08/21 09:51:32;;;;;;;6.45;6.15;;;24.40;57.60;;;;;;5034982;28;20030;-84
2021/08/21 09:54:00;;;;;;;6.70;6.40;;;24.50;57.40;;;;;;5063154;28;20401;-82
2021/08/21 09:56:33;;;;;;;6.60;6.30;;;24.50;57.30;;;;;;5052894;28;20049;-84
2021/08/21 09:59:00;;;;;;;6.85;6.55;;;24.50;57.40;;;;;;5054845;28;20041;-83
2021/08/21 10:01:27;;;;;;;6.22;5.93;;;24.40;57.50;;;;;;5051960;28;20036;-84
2021/08/21 10:03:54;;;;;;;5.95;5.65;;;24.30;57.60;;;;;;5053049;28;20037;-84
2021/08/21 10:06:20;;;;;;;5.93;5.63;;;24.20;57.70;;;;;;5051104;28;20037;-84
2021/08/21 10:08:47;;;;;;;5.30;5.10;;;24.10;57.70;;;;;;5038754;28;20029;-83
2021/08/21 10:11:14;;;;;;;4.75;4.55;;;24.10;57.80;;;;;;5035005;28;20493;-84
2021/08/21 10:13:40;;;;;;;4.07;3.88;;;24.00;57.90;;;;;;5053518;28;20096;-85
2021/08/21 10:16:08;;;;;;;4.22;4.03;;;23.90;58.00;;;;;;5053139;28;20041;-83
2021/08/21 10:18:34;;;;;;;3.97;3.78;;;23.80;58.10;;;;;;5051338;28;20017;-84
2021/08/21 10:21:01;;;;;;;4.65;4.35;;;23.80;58.10;;;;;;5037364;28;20512;-84
2021/08/21 10:23:27;;;;;;;4.10;3.90;;;23.70;58.10;;;;;;5053775;28;20025;-84
2021/08/21 10:26:02;;;;;;;4.60;4.40;;;23.60;58.20;;;;;;5053503;28;20029;-83
2021/08/21 10:28:33;;;;;;;4.63;4.43;;;23.60;58.30;;;;;;5036522;28;20029;-83
2021/08/21 10:30:59;;;;;;;5.05;4.75;;;23.50;58.30;;;;;;5036777;28;20028;-84
2021/08/21 10:33:28;;;;;;;4.30;4.10;;;23.50;58.20;;;;;;5031989;28;20401;-84
2021/08/21 10:35:55;;;;;;;4.07;3.88;;;23.40;58.20;;;;;;5095480;28;20421;-83
2021/08/21 10:38:33;;;;;;;4.20;4.00;;;23.40;58.20;;;;;;5054269;28;20056;-84
2021/08/21 10:41:07;;;;;;;4.07;3.88;;;23.30;58.30;;;;;;5054584;28;20045;-84
2021/08/21 10:43:43;;;;;;;3.95;3.75;;;23.20;58.30;;;;;;5054499;28;20025;-83
2021/08/21 10:46:09;;;;;;;3.80;3.60;;;23.20;58.40;;;;;;5053930;28;20024;-83
2021/08/21 10:48:38;;;;;;;4.05;3.85;;;23.20;58.40;;;;;;5035178;28;20033;-85
2021/08/21 10:51:31;;;;;;;4.30;3.97;;;23.20;58.40;;;;;;5054192;28;20036;-85
2021/08/21 10:53:57;;;;;;;3.72;3.53;;;23.20;58.30;;;;;;5067597;28;20056;-84
2021/08/21 10:56:34;;;;;;;3.80;3.60;;;23.30;58.20;;;;;;5054998;28;20044;-84
2021/08/21 10:59:00;;;;;;;4.10;3.90;;;23.30;58.10;;;;;;5054402;28;20036;-84
2021/08/21 11:01:26;;;;;;;3.97;3.78;;;23.40;58.00;;;;;;5052431;28;20037;-84
2021/08/21 11:03:52;;;;;;;4.32;4.13;;;23.40;58.40;;;;;;5052202;28;20025;-84
2021/08/21 11:06:32;;;;;;;4.40;4.18;;;23.50;57.70;;;;;;5049270;28;20602;-83
2021/08/21 11:09:03;;;;;;;4.25;4.05;;;23.60;57.60;;;;;;5095397;28;20021;-84
2021/08/21 11:11:48;;;;;;;4.47;4.28;;;23.60;57.60;;;;;;5054902;28;20637;-84
2021/08/21 11:14:20;;;;;;;3.85;3.65;;;23.60;57.60;;;;;;5054243;28;20033;-83
2021/08/21 11:16:58;;;;;;;4.05;3.85;;;23.60;57.60;;;;;;5053824;28;20041;-83
2021/08/21 11:19:42;;;;;;;4.60;4.40;;;23.60;57.60;;;;;;5053056;28;20029;-84
2021/08/21 11:22:18;;;;;;;4.60;4.30;;;23.60;57.70;;;;;;5054025;28;20527;-83
2021/08/21 11:24:51;;;;;;;4.18;3.97;;;23.50;57.60;;;;;;5054707;28;20029;-84
2021/08/21 11:27:26;;;;;;;4.53;4.32;;;23.60;57.70;;;;;;5054751;28;20486;-83
2021/08/21 11:30:11;;;;;;;4.20;4.00;;;23.60;57.70;;;;;;5060048;28;20044;-84
2021/08/21 11:32:58;;;;;;;4.28;4.07;;;23.60;57.60;;;;;;5057410;28;20044;-84
2021/08/21 11:36:02;;;;;;;4.05;3.85;;;23.60;57.60;;;;;;5056640;28;20045;-83
2021/08/21 11:38:33;;;;;;;3.90;3.70;;;23.60;57.60;;;;;;5057044;28;20371;-83
2021/08/21 11:41:00;;;;;;;4.00;3.80;;;23.60;57.60;;;;;;5056467;28;20051;-83
2021/08/21 11:43:28;;;;;;;4.72;4.53;;;23.70;57.50;;;;;;5039888;28;20032;-83
2021/08/21 11:45:55;;;;;;;4.40;4.20;;;23.80;57.50;;;;;;5054623;28;20032;-83
2021/08/21 11:48:32;;;;;;;4.47;4.28;;;23.80;57.50;;;;;;5019245;28;20034;-84
2021/08/21 11:50:58;;;;;;;4.53;4.32;;;23.90;57.40;;;;;;5098998;28;20482;-85
2021/08/21 11:53:43;;;;;;;4.30;4.10;;;23.90;57.40;;;;;;5040071;28;20041;-83
2021/08/21 11:56:14;;;;;;;4.30;4.10;;;23.90;57.40;;;;;;5055074;28;20482;-84
2021/08/21 11:58:49;;;;;;;4.30;4.10;;;23.90;57.50;;;;;;5056146;28;20322;-83
2021/08/21 12:01:17;;;;;;;4.15;3.95;;;23.80;57.50;;;;;;5055680;28;20039;-84
2021/08/21 12:06:28;;;;;;;4.30;4.10;;;23.80;57.60;;;;;;5057531;28;20402;-83
2021/08/21 12:09:10;;;;;;;3.97;3.78;;;23.70;57.70;;;;;;5065972;28;20497;-84
2021/08/21 12:11:44;;;;;;;4.10;3.90;;;23.60;57.80;;;;;;5055678;28;20056;-84
2021/08/21 12:14:11;;;;;;;4.05;3.85;;;23.50;57.90;;;;;;5054333;28;20056;-84
2021/08/21 12:16:37;;;;;;;3.67;3.47;;;23.50;58.10;;;;;;5056392;28;20040;-84
2021/08/21 12:19:03;;;;;;;5.00;4.70;;;23.40;58.10;;;;;;5037527;28;20040;-84
2021/08/21 12:21:29;;;;;;;4.22;4.03;;;23.40;58.20;;;;;;5051666;28;20385;-84
2021/08/21 12:23:55;;;;;;;3.95;3.75;;;23.40;58.30;;;;;;5040866;28;20033;-85
2021/08/21 12:26:33;;;;;;;3.88;3.67;;;23.30;58.40;;;;;;5056695;28;20017;-84
2021/08/21 12:28:59;;;;;;;3.92;3.72;;;23.20;58.60;;;;;;5055365;28;20048;-85
2021/08/21 12:31:36;;;;;;;3.97;3.78;;;23.20;58.70;;;;;;5055120;28;20029;-83
2021/08/21 12:34:02;;;;;;;4.03;3.83;;;23.10;58.90;;;;;;5055664;28;20044;-84
2021/08/21 12:36:28;;;;;;;4.28;3.97;;;23.00;59.00;;;;;;5051841;28;20034;-84
2021/08/21 12:39:05;;;;;;;4.70;4.50;;;22.90;59.20;;;;;;5058400;28;20386;-84
2021/08/21 12:41:32;;;;;;;4.53;4.32;;;22.90;59.40;;;;;;5057537;28;20045;-83
2021/08/21 12:44:07;;;;;;;5.00;4.75;;;22.80;59.50;;;;;;5055101;28;20481;-84
2021/08/21 12:46:34;;;;;;;4.22;4.03;;;22.70;59.70;;;;;;5056006;28;20037;-84
2021/08/21 12:49:09;;;;;;;4.38;4.18;;;22.60;59.90;;;;;;5039772;28;20036;-85
2021/08/21 12:51:37;;;;;;;3.83;3.63;;;22.60;60.10;;;;;;5052862;28;20021;-84
2021/08/21 12:54:08;;;;;;;4.75;4.55;;;22.50;60.30;;;;;;5054728;28;20032;-84
2021/08/21 12:56:34;;;;;;;4.25;4.05;;;22.50;60.60;;;;;;5054634;28;20056;-84